createdAt,value
2019-04-10T00:01:27.848Z,45.42
2019-04-10T00:04:00.609Z,45.60
2019-04-10T00:06:34.001Z,45.33
2019-04-10T00:09:08.431Z,45.34
2019-04-10T00:11:40.989Z,45.34
2019-04-10T00:14:12.855Z,45.38
2019-04-10T00:16:46.691Z,45.63
2019-04-10T00:19:18.772Z,45.71
2019-04-10T00:21:50.765Z,45.65
2019-04-10T00:24:22.633Z,45.62
2019-04-10T00:26:54.597Z,45.86
2019-04-10T00:29:26.457Z,45.79
2019-04-10T00:32:01.324Z,45.85
2019-04-10T00:34:32.022Z,46.03
2019-04-10T00:37:04.090Z,45.86
2019-04-10T00:39:36.929Z,45.80
2019-04-10T00:42:09.241Z,45.70
2019-04-10T00:44:42.208Z,45.68
2019-04-10T00:47:14.888Z,45.53
2019-04-10T00:49:46.955Z,45.26
2019-04-10T00:52:19.753Z,45.31
2019-04-10T00:54:51.746Z,45.31
2019-04-10T00:57:23.896Z,45.47
2019-04-10T00:59:56.722Z,45.65
2019-04-10T01:02:29.152Z,45.54
2019-04-10T01:05:00.982Z,45.56
2019-04-10T01:07:39.849Z,45.59
2019-04-10T01:10:08.786Z,45.75
2019-04-10T01:12:40.905Z,46.07
2019-04-10T01:15:12.857Z,46.30
2019-04-10T01:17:44.931Z,46.28
2019-04-10T01:20:17.615Z,46.21
2019-04-10T01:22:49.985Z,46.46
2019-04-10T01:25:22.078Z,46.63
2019-04-10T01:27:54.341Z,46.74
2019-04-10T01:30:26.397Z,46.94
2019-04-10T01:32:58.573Z,47.01
2019-04-10T01:35:30.603Z,47.31
2019-04-10T01:38:04.641Z,47.39
2019-04-10T01:40:37.305Z,47.35
2019-04-10T01:43:14.519Z,47.30
2019-04-10T01:45:44.020Z,47.29
2019-04-10T01:48:16.074Z,47.37
2019-04-10T01:50:47.773Z,47.33
2019-04-10T01:53:19.806Z,47.56
2019-04-10T01:55:51.796Z,47.65
2019-04-10T01:58:25.280Z,47.97
2019-04-10T02:01:18.960Z,47.92
2019-04-10T02:03:52.044Z,48.22
2019-04-10T02:06:23.903Z,48.34
2019-04-10T02:08:56.339Z,48.52
2019-04-10T02:11:28.529Z,48.87
2019-04-10T02:14:00.471Z,48.84
2019-04-10T02:16:32.627Z,48.92
2019-04-10T02:19:06.000Z,49.24
2019-04-10T02:21:38.090Z,49.33
2019-04-10T02:24:11.117Z,49.76
2019-04-10T02:26:43.474Z,49.71
2019-04-10T02:29:15.660Z,50.00
2019-04-10T02:31:48.494Z,50.31
2019-04-10T02:34:21.497Z,50.43
2019-04-10T02:36:55.344Z,50.56
2019-04-10T02:39:37.384Z,50.80
2019-04-10T02:42:02.850Z,50.94
2019-04-10T02:44:35.509Z,50.81
2019-04-10T02:47:07.463Z,50.82
2019-04-10T02:49:40.396Z,50.85
2019-04-10T02:52:13.011Z,50.90
2019-04-10T02:54:46.298Z,50.86
2019-04-10T02:57:19.426Z,50.84
2019-04-10T02:59:53.680Z,50.90
2019-04-10T03:02:26.684Z,50.88
2019-04-10T03:04:59.406Z,51.14
2019-04-10T03:07:31.873Z,51.07
2019-04-10T03:10:15.348Z,51.11
2019-04-10T03:12:38.747Z,51.23
2019-04-10T03:15:12.745Z,51.36
2019-04-10T03:17:44.868Z,51.54
2019-04-10T03:20:18.417Z,51.48
2019-04-10T03:22:51.358Z,51.75
2019-04-10T03:25:24.555Z,51.74
2019-04-10T03:27:56.665Z,51.89
2019-04-10T03:30:29.687Z,52.04
2019-04-10T03:33:24.626Z,52.04
2019-04-10T03:35:54.909Z,52.20
2019-04-10T03:38:26.928Z,52.28
2019-04-10T03:40:59.793Z,52.29
2019-04-10T03:43:33.947Z,52.37
2019-04-10T03:46:06.174Z,52.46
2019-04-10T03:48:38.913Z,52.51
2019-04-10T03:51:12.261Z,52.59
2019-04-10T03:53:44.539Z,52.72
2019-04-10T03:56:18.055Z,52.80
2019-04-10T03:58:50.168Z,52.90
2019-04-10T04:01:22.978Z,52.86
2019-04-10T04:03:55.225Z,52.86
2019-04-10T04:06:27.893Z,52.94
2019-04-10T04:09:05.607Z,52.83
2019-04-10T04:11:34.832Z,52.80
2019-04-10T04:14:08.256Z,52.81
2019-04-10T04:16:41.325Z,52.91
2019-04-10T04:19:13.571Z,52.90
2019-04-10T04:21:45.728Z,53.10
2019-04-10T04:24:17.868Z,52.98
2019-04-10T04:26:50.802Z,52.91
2019-04-10T04:29:23.161Z,52.68
2019-04-10T04:31:55.235Z,52.66
2019-04-10T04:34:27.296Z,52.52
2019-04-10T04:37:00.337Z,52.67
2019-04-10T04:39:33.037Z,52.29
2019-04-10T04:42:05.353Z,52.40
2019-04-10T04:44:37.654Z,52.26
2019-04-10T04:47:09.890Z,52.08
2019-04-10T04:49:42.103Z,52.21
2019-04-10T04:52:16.174Z,52.14
2019-04-10T04:54:49.833Z,52.11
2019-04-10T04:57:22.634Z,51.68
2019-04-10T04:59:54.854Z,51.61
2019-04-10T05:02:28.088Z,51.54
2019-04-10T05:05:00.407Z,51.53
2019-04-10T05:07:33.292Z,51.65
2019-04-10T05:10:07.041Z,50.99
2019-04-10T05:12:39.301Z,50.76
2019-04-10T05:15:11.408Z,50.66
2019-04-10T05:17:43.379Z,50.24
2019-04-10T05:20:15.233Z,49.84
2019-04-10T05:22:47.203Z,49.94
2019-04-10T05:25:19.095Z,49.44
2019-04-10T05:27:51.129Z,48.91
2019-04-10T05:30:23.222Z,48.64
2019-04-10T05:32:55.697Z,47.86
2019-04-10T05:35:27.866Z,47.67
2019-04-10T05:38:00.433Z,47.67
2019-04-10T05:40:33.236Z,48.08
2019-04-10T05:43:05.942Z,47.27
2019-04-10T05:45:38.037Z,47.32
2019-04-10T05:48:11.096Z,47.03
2019-04-10T05:50:53.093Z,46.82
2019-04-10T05:53:16.912Z,46.57
2019-04-10T05:55:49.368Z,46.54
2019-04-10T05:58:21.800Z,46.64
2019-04-10T06:00:54.937Z,46.36
2019-04-10T06:03:26.916Z,45.98
2019-04-10T06:06:00.978Z,46.00
2019-04-10T06:08:33.711Z,45.91
2019-04-10T06:11:06.673Z,45.36
2019-04-10T06:13:39.080Z,45.48
2019-04-10T06:16:11.858Z,45.04
2019-04-10T06:18:45.154Z,44.71
2019-04-10T06:21:17.199Z,44.43
2019-04-10T06:23:49.856Z,44.32
2019-04-10T06:26:21.991Z,43.94
2019-04-10T06:28:54.744Z,43.14
2019-04-10T06:31:28.392Z,43.01
2019-04-10T06:34:00.856Z,42.87
2019-04-10T06:36:33.407Z,42.31
2019-04-10T06:39:07.248Z,42.03
2019-04-10T06:41:39.133Z,41.14
2019-04-10T06:44:12.274Z,40.98
2019-04-10T06:46:44.554Z,41.12
2019-04-10T06:49:17.937Z,40.38
2019-04-10T06:51:49.838Z,40.01
2019-04-10T06:54:22.760Z,39.64
2019-04-10T06:56:54.726Z,39.15
2019-04-10T06:59:26.881Z,38.88
2019-04-10T07:02:14.134Z,38.18
2019-04-10T07:04:44.161Z,38.29
2019-04-10T07:07:11.280Z,38.02
2019-04-10T07:09:40.735Z,38.12
2019-04-10T07:12:12.988Z,37.86
2019-04-10T07:14:48.183Z,37.16
2019-04-10T07:17:18.516Z,37.27
2019-04-10T07:19:51.332Z,37.56
2019-04-10T07:22:23.337Z,37.15
2019-04-10T07:24:56.371Z,36.94
2019-04-10T07:27:28.325Z,36.33
2019-04-10T07:30:01.475Z,36.85
2019-04-10T07:32:36.072Z,37.48
2019-04-10T07:35:11.239Z,36.84
2019-04-10T07:37:44.444Z,36.71
2019-04-10T07:40:17.177Z,36.51
2019-04-10T07:42:49.040Z,36.46
2019-04-10T07:45:20.974Z,36.47
2019-04-10T07:47:53.948Z,36.45
2019-04-10T07:50:26.206Z,35.99
2019-04-10T07:52:58.196Z,36.41
2019-04-10T07:55:30.911Z,36.24
2019-04-10T07:58:03.127Z,35.47
2019-04-10T08:00:35.160Z,35.70
2019-04-10T08:03:08.226Z,36.05
2019-04-10T08:05:41.981Z,35.91
2019-04-10T08:08:13.836Z,35.08
2019-04-10T08:10:45.836Z,34.83
2019-04-10T08:13:17.637Z,34.76
2019-04-10T08:15:50.077Z,34.75
2019-04-10T08:18:23.269Z,34.26
2019-04-10T08:20:55.770Z,33.39
2019-04-10T08:23:28.132Z,33.79
2019-04-10T08:26:00.310Z,33.55
2019-04-10T08:28:33.376Z,33.43
2019-04-10T08:31:06.479Z,32.72
2019-04-10T08:33:38.765Z,32.74
2019-04-10T08:36:10.943Z,32.27
2019-04-10T08:38:43.216Z,32.56
2019-04-10T08:41:15.379Z,32.79
2019-04-10T08:43:48.101Z,32.58
2019-04-10T08:46:20.077Z,32.07
2019-04-10T08:48:52.030Z,32.00
2019-04-10T08:51:24.148Z,32.39
2019-04-10T08:53:56.830Z,31.99
2019-04-10T08:56:30.123Z,32.01
2019-04-10T08:59:03.387Z,32.00
2019-04-10T09:01:35.808Z,31.50
2019-04-10T09:04:07.872Z,31.87
2019-04-10T09:06:40.128Z,31.75
2019-04-10T09:09:12.959Z,31.40
2019-04-10T09:11:45.491Z,30.68
2019-04-10T09:14:17.316Z,31.02
2019-04-10T09:16:49.421Z,31.00
2019-04-10T09:19:22.151Z,31.01
2019-04-10T09:21:55.482Z,31.38
2019-04-10T09:24:27.945Z,31.15
2019-04-10T09:27:00.519Z,30.79
2019-04-10T09:29:32.609Z,30.37
2019-04-10T09:32:04.623Z,30.94
2019-04-10T09:34:36.733Z,29.86
2019-04-10T09:37:08.826Z,30.58
2019-04-10T09:39:41.306Z,31.18
2019-04-10T09:42:13.585Z,31.06
2019-04-10T09:44:46.312Z,30.37
2019-04-10T09:47:18.716Z,30.12
2019-04-10T09:49:51.381Z,30.08
2019-04-10T09:52:23.759Z,29.90
2019-04-10T09:54:55.709Z,29.88
2019-04-10T09:57:28.722Z,30.39
2019-04-10T10:00:00.969Z,30.53
2019-04-10T10:02:35.760Z,29.60
2019-04-10T10:05:08.472Z,29.73
2019-04-10T10:07:41.047Z,28.80
2019-04-10T10:10:15.060Z,29.75
2019-04-10T10:12:48.409Z,30.67
2019-04-10T10:15:21.067Z,30.91
2019-04-10T10:17:53.146Z,30.24
2019-04-10T10:20:25.948Z,30.26
2019-04-10T10:22:58.293Z,29.50
2019-04-10T10:25:31.181Z,29.75
2019-04-10T10:28:04.985Z,29.18
2019-04-10T10:30:37.801Z,29.34
2019-04-10T10:33:09.932Z,29.95
2019-04-10T10:35:43.092Z,29.89
2019-04-10T10:38:15.186Z,29.73
2019-04-10T10:40:47.395Z,29.84
2019-04-10T10:43:20.439Z,28.99
2019-04-10T10:45:53.401Z,29.36
2019-04-10T10:48:25.604Z,28.89
2019-04-10T10:50:58.253Z,29.39
2019-04-10T10:53:32.400Z,30.22
2019-04-10T10:56:04.341Z,29.81
2019-04-10T10:58:37.555Z,29.55
2019-04-10T11:01:09.715Z,29.13
2019-04-10T11:03:42.527Z,29.62
2019-04-10T11:06:16.146Z,29.78
2019-04-10T11:08:48.885Z,29.62
2019-04-10T11:11:20.739Z,29.23
2019-04-10T11:13:52.940Z,29.38
2019-04-10T11:16:24.871Z,29.13
2019-04-10T11:18:57.641Z,29.00
2019-04-10T11:21:30.051Z,29.68
2019-04-10T11:24:03.072Z,28.99
2019-04-10T11:26:36.173Z,28.69
2019-04-10T11:29:09.919Z,28.93
2019-04-10T11:31:41.907Z,28.70
2019-04-10T11:34:14.165Z,27.16
2019-04-10T11:36:46.385Z,27.91
2019-04-10T11:41:52.732Z,26.30
2019-04-10T11:44:27.282Z,26.05
2019-04-10T11:46:58.947Z,26.77
2019-04-10T11:49:32.934Z,26.75
2019-04-10T11:52:06.242Z,26.56
2019-04-10T11:54:41.357Z,26.15
2019-04-10T11:57:13.305Z,25.71
2019-04-10T11:59:48.850Z,25.26
2019-04-10T12:02:21.887Z,24.82
2019-04-10T12:04:57.681Z,24.20
2019-04-10T12:07:55.055Z,24.70
2019-04-10T12:12:35.381Z,23.45
2019-04-10T12:15:08.792Z,23.54
2019-04-10T12:17:40.616Z,22.67
2019-04-10T12:20:13.162Z,22.05
2019-04-10T12:22:46.190Z,22.11
2019-04-10T12:25:18.730Z,21.70
2019-04-10T12:27:51.578Z,21.89
2019-04-10T12:30:23.608Z,20.88
2019-04-10T12:32:55.509Z,19.84
2019-04-10T12:35:27.738Z,19.54
2019-04-10T12:38:03.750Z,18.12
2019-04-10T12:40:35.176Z,16.86
2019-04-10T12:43:10.512Z,16.12
2019-04-10T12:45:42.635Z,15.80
2019-04-10T12:48:14.819Z,14.98
2019-04-10T12:50:47.501Z,14.13
2019-04-10T12:53:19.826Z,13.24
2019-04-10T12:55:51.925Z,12.86
2019-04-10T12:58:23.974Z,12.60
2019-04-10T13:00:56.397Z,12.11
2019-04-10T13:03:29.385Z,11.66
2019-04-10T13:06:01.919Z,10.84
2019-04-10T13:08:51.112Z,11.02
2019-04-10T13:11:07.839Z,10.60
2019-04-10T13:13:39.683Z,9.53
2019-04-10T13:16:11.971Z,8.73
2019-04-10T13:18:44.758Z,8.33
2019-04-10T13:21:18.027Z,7.88
2019-04-10T13:23:50.300Z,7.21
2019-04-10T13:26:22.343Z,6.76
2019-04-10T13:28:54.365Z,6.55
2019-04-10T13:31:27.650Z,6.36
2019-04-10T13:34:00.722Z,6.26
2019-04-10T13:36:33.792Z,6.38
2019-04-10T13:39:07.187Z,7.10
2019-04-10T13:41:40.706Z,6.95
2019-04-10T13:44:14.151Z,6.14
2019-04-10T13:46:48.980Z,5.75
2019-04-10T13:49:22.009Z,5.55
2019-04-10T13:51:54.379Z,5.21
2019-04-10T13:54:26.467Z,5.34
2019-04-10T13:56:58.781Z,5.40
2019-04-10T13:59:31.184Z,5.28
2019-04-10T14:02:05.242Z,5.19
2019-04-10T14:04:37.247Z,5.07
2019-04-10T14:07:09.572Z,4.95
2019-04-10T14:09:47.122Z,4.77
2019-04-10T14:12:16.628Z,5.09
2019-04-10T14:14:48.906Z,6.66
2019-04-10T14:17:21.526Z,8.88
2019-04-10T14:19:54.735Z,11.24
2019-04-10T14:22:27.049Z,12.86
2019-04-10T14:24:59.194Z,13.91
2019-04-10T14:27:32.325Z,14.99
2019-04-10T14:30:05.370Z,16.27
2019-04-10T14:32:39.734Z,17.28
2019-04-10T14:35:11.953Z,18.05
2019-04-10T14:37:43.883Z,19.12
2019-04-10T14:40:17.023Z,20.11
2019-04-10T14:42:51.380Z,20.82
2019-04-10T14:45:23.648Z,21.32
2019-04-10T14:47:56.811Z,21.36
2019-04-10T14:50:29.560Z,21.63
2019-04-10T14:53:01.919Z,21.65
2019-04-10T14:55:34.245Z,21.76
2019-04-10T14:58:18.995Z,22.12
2019-04-10T15:00:51.163Z,22.60
2019-04-10T15:03:24.473Z,22.85
2019-04-10T15:05:58.271Z,23.66
2019-04-10T15:08:31.454Z,24.31
2019-04-10T15:11:04.529Z,24.46
2019-04-10T15:13:37.985Z,24.79
2019-04-10T15:16:10.095Z,24.98
2019-04-10T15:18:43.558Z,24.73
2019-04-10T15:21:15.918Z,24.06
2019-04-10T15:23:48.114Z,23.83
2019-04-10T15:26:20.496Z,24.08
2019-04-10T15:28:52.426Z,24.52
2019-04-10T15:31:27.202Z,25.21
2019-04-10T15:33:58.151Z,25.26
2019-04-10T15:36:30.283Z,25.69
2019-04-10T15:39:02.379Z,25.42
2019-04-10T15:41:36.042Z,25.39
2019-04-10T15:44:09.872Z,25.57
2019-04-10T15:46:42.186Z,26.30
2019-04-10T15:49:15.294Z,26.56
2019-04-10T15:51:47.583Z,26.79
2019-04-10T15:54:19.938Z,27.16
2019-04-10T15:56:52.777Z,27.69
2019-04-10T15:59:24.924Z,28.84
2019-04-10T16:01:57.332Z,29.20
2019-04-10T16:04:29.631Z,29.92
2019-04-10T16:07:02.115Z,30.79
2019-04-10T16:09:44.899Z,31.11
2019-04-10T16:12:14.529Z,31.47
2019-04-10T16:14:46.680Z,32.31
2019-04-10T16:17:37.690Z,32.79
2019-04-10T16:20:25.266Z,32.98
2019-04-10T16:23:14.591Z,33.33
2019-04-10T16:25:52.370Z,33.35
2019-04-10T16:28:26.989Z,33.80
2019-04-10T16:31:01.323Z,33.49
2019-04-10T16:33:33.542Z,33.65
2019-04-10T16:36:06.080Z,34.43
2019-04-10T16:38:38.527Z,34.43
2019-04-10T16:41:10.866Z,34.70
2019-04-10T16:43:43.020Z,34.51
2019-04-10T16:46:15.350Z,34.62
2019-04-10T16:48:48.363Z,34.75
2019-04-10T16:51:20.978Z,35.02
2019-04-10T16:53:53.739Z,35.13
2019-04-10T16:56:26.001Z,35.78
2019-04-10T16:58:58.464Z,35.61
2019-04-10T17:01:30.984Z,35.92
2019-04-10T17:04:03.182Z,35.96
2019-04-10T17:06:36.459Z,36.10
2019-04-10T17:09:10.859Z,36.43
2019-04-10T17:11:43.508Z,36.55
2019-04-10T17:14:17.390Z,36.73
2019-04-10T17:16:50.300Z,36.86
2019-04-10T17:19:22.195Z,36.88
2019-04-10T17:21:54.353Z,37.10
2019-04-10T17:24:27.287Z,37.13
2019-04-10T17:26:59.529Z,37.22
2019-04-10T17:29:31.643Z,37.20
2019-04-10T17:32:04.712Z,37.26
2019-04-10T17:34:36.723Z,37.67
2019-04-10T17:37:09.723Z,38.03
2019-04-10T17:39:41.841Z,38.05
2019-04-10T17:42:14.522Z,38.14
2019-04-10T17:44:47.799Z,38.52
2019-04-10T17:47:20.781Z,38.47
2019-04-10T17:49:54.066Z,39.11
2019-04-10T17:52:27.138Z,38.85
2019-04-10T17:54:59.340Z,39.41
2019-04-10T17:57:38.178Z,39.08
2019-04-10T18:00:09.027Z,39.37
2019-04-10T18:02:43.087Z,39.44
2019-04-10T18:05:15.199Z,39.75
2019-04-10T18:07:47.975Z,39.90
2019-04-10T18:10:20.366Z,39.95
2019-04-10T18:12:52.789Z,40.11
2019-04-10T18:15:26.076Z,40.25
2019-04-10T18:17:58.138Z,40.37
2019-04-10T18:20:29.947Z,40.13
2019-04-10T18:23:02.911Z,40.11
2019-04-10T18:25:36.086Z,40.22
2019-04-10T18:28:09.508Z,40.19
2019-04-10T18:30:41.848Z,40.38
2019-04-10T18:33:14.212Z,40.61
2019-04-10T18:35:47.058Z,40.56
2019-04-10T18:38:19.564Z,40.58
2019-04-10T18:40:58.600Z,40.75
2019-04-10T18:43:26.954Z,41.07
2019-04-10T18:46:10.233Z,41.29
2019-04-10T18:48:32.712Z,41.42
2019-04-10T18:51:06.596Z,41.75
2019-04-10T18:53:39.381Z,41.97
2019-04-10T18:56:11.625Z,42.02
2019-04-10T18:58:49.631Z,42.45
2019-04-10T19:01:39.538Z,42.53
2019-04-10T19:04:18.751Z,42.36
2019-04-10T19:06:56.538Z,42.41
2019-04-10T19:09:39.100Z,42.84
2019-04-10T19:12:11.043Z,42.80
2019-04-10T19:14:43.011Z,42.93
2019-04-10T19:17:17.043Z,42.92
2019-04-10T19:19:50.697Z,43.05
2019-04-10T19:22:24.244Z,43.18
2019-04-10T19:24:56.743Z,43.21
2019-04-10T19:27:28.842Z,43.15
2019-04-10T19:30:00.916Z,43.05
2019-04-10T19:32:37.382Z,43.01
2019-04-10T19:35:10.840Z,43.19
2019-04-10T19:37:42.883Z,43.18
2019-04-10T19:40:16.019Z,43.36
2019-04-10T19:42:49.267Z,43.38
2019-04-10T19:45:21.673Z,43.20
2019-04-10T19:47:54.660Z,43.04
2019-04-10T19:50:27.700Z,43.08
2019-04-10T19:53:00.510Z,43.05
2019-04-10T19:55:32.830Z,42.92
2019-04-10T19:58:05.938Z,42.86
2019-04-10T20:00:38.853Z,43.13
2019-04-10T20:03:11.201Z,42.94
2019-04-10T20:05:43.765Z,42.86
2019-04-10T20:08:15.596Z,42.79
2019-04-10T20:10:47.884Z,42.95
2019-04-10T20:13:20.635Z,43.04
2019-04-10T20:15:53.137Z,42.95
2019-04-10T20:18:26.338Z,42.95
2019-04-10T20:20:59.675Z,43.02
2019-04-10T20:23:32.060Z,43.25
2019-04-10T20:26:05.127Z,43.21
2019-04-10T20:28:37.078Z,43.18
2019-04-10T20:31:13.103Z,43.09
2019-04-10T20:33:45.236Z,43.19
2019-04-10T20:36:17.357Z,43.14
2019-04-10T20:38:50.264Z,43.13
2019-04-10T20:41:22.731Z,43.17
2019-04-10T20:43:55.388Z,43.26
2019-04-10T20:46:28.467Z,43.02
2019-04-10T20:49:00.608Z,42.92
2019-04-10T20:51:34.179Z,43.02
2019-04-10T20:54:06.556Z,43.30
2019-04-10T20:56:39.025Z,43.26
2019-04-10T20:59:11.968Z,43.42
2019-04-10T21:01:44.943Z,43.38
2019-04-10T21:04:17.045Z,43.51
2019-04-10T21:06:50.147Z,43.50
2019-04-10T21:09:21.981Z,43.54
2019-04-10T21:12:02.079Z,43.72
2019-04-10T21:14:27.637Z,44.10
2019-04-10T21:17:00.385Z,43.97
2019-04-10T21:19:33.456Z,44.02
2019-04-10T21:22:05.958Z,44.21
2019-04-10T21:24:37.910Z,44.37
2019-04-10T21:27:11.203Z,44.54
2019-04-10T21:30:07.269Z,44.81
2019-04-10T21:32:47.484Z,45.09
2019-04-10T21:35:22.914Z,45.64
2019-04-10T21:37:56.917Z,45.78
2019-04-10T21:40:28.942Z,45.82
2019-04-10T21:43:01.597Z,46.11
2019-04-10T21:45:34.984Z,46.13
2019-04-10T21:48:07.058Z,46.18
2019-04-10T21:50:39.808Z,46.59
2019-04-10T21:53:12.231Z,46.98
2019-04-10T21:55:44.115Z,47.58
2019-04-10T21:58:16.417Z,47.71
2019-04-10T22:01:08.447Z,48.02
2019-04-10T22:03:41.478Z,48.36
2019-04-10T22:06:31.983Z,48.74
2019-04-10T22:09:39.067Z,49.01
2019-04-10T22:12:25.660Z,49.47
2019-04-10T22:14:52.516Z,49.62
2019-04-10T22:17:24.806Z,49.47
2019-04-10T22:19:57.042Z,49.40
2019-04-10T22:22:28.926Z,49.19
2019-04-10T22:25:01.267Z,49.28
2019-04-10T22:27:34.247Z,49.26
2019-04-10T22:30:08.318Z,49.37
2019-04-10T22:32:40.915Z,49.44
2019-04-10T22:35:13.228Z,49.18
2019-04-10T22:37:46.251Z,49.05
2019-04-10T22:40:19.323Z,49.17
2019-04-10T22:42:51.580Z,49.31
2019-04-10T22:45:34.566Z,48.94
2019-04-10T22:48:06.385Z,48.90
2019-04-10T22:50:38.658Z,48.96
2019-04-10T22:53:11.368Z,48.87
2019-04-10T22:55:45.089Z,49.03
2019-04-10T22:58:17.170Z,48.93
2019-04-10T23:00:50.839Z,48.91
2019-04-10T23:03:22.443Z,48.93
2019-04-10T23:05:54.477Z,48.93
2019-04-10T23:08:27.352Z,49.12
2019-04-10T23:10:59.845Z,49.01
2019-04-10T23:13:32.062Z,49.17
2019-04-10T23:16:08.149Z,49.26
2019-04-10T23:18:41.379Z,49.30
2019-04-10T23:21:14.497Z,49.19
2019-04-10T23:23:47.352Z,49.20
2019-04-10T23:26:20.776Z,49.14
2019-04-10T23:28:52.970Z,49.32
2019-04-10T23:31:25.723Z,49.42
2019-04-10T23:33:58.649Z,49.50
2019-04-10T23:36:31.888Z,49.45
2019-04-10T23:39:06.087Z,49.54
2019-04-10T23:41:38.260Z,49.67
2019-04-10T23:44:11.019Z,49.78
2019-04-10T23:46:43.323Z,49.76
2019-04-10T23:49:15.452Z,49.94
2019-04-10T23:51:47.536Z,49.99
2019-04-10T23:54:19.568Z,50.25
2019-04-10T23:56:52.629Z,50.40
2019-04-10T23:59:24.559Z,50.56
